Time;durP1;ratioP1;P1;durP2;ratioP2;P2;SDS_P1;SDS_P2;PMS_P1;PMS_P2;Temp;Humidity;BMP_temperature;BMP_pressure;BME280_temperature;BME280_humidity;BME280_pressure;Samples;Min_cycle;Max_cycle;Signal;HPM_P1;HPM_P2
2022/04/27 00:01:21;;;;;;;7.77;6.80;;;8.50;99.90;;;;;;4980167;28;20190;-96
2022/04/27 00:03:49;;;;;;;8.43;7.40;;;8.40;99.90;;;;;;4975244;28;20439;-96
2022/04/27 00:06:15;;;;;;;8.80;7.10;;;8.40;99.90;;;;;;4976561;28;20441;-96
2022/04/27 00:08:46;;;;;;;8.13;7.33;;;8.40;99.90;;;;;;4973272;28;20440;-96
2022/04/27 00:11:15;;;;;;;9.37;7.93;;;8.30;99.90;;;;;;4989972;28;20190;-96
2022/04/27 00:14:02;;;;;;;;;;;;;;;;;;;;;
2022/04/27 00:16:41;;;;;;;8.13;7.20;;;8.40;99.90;;;;;;5008777;28;20440;-96
2022/04/27 00:19:12;;;;;;;7.73;6.93;;;8.50;99.90;;;;;;5102502;23;20629;-96
2022/04/27 00:21:47;;;;;;;7.90;7.10;;;8.30;99.90;;;;;;4957457;28;20476;-96
2022/04/27 00:24:30;;;;;;;8.27;6.57;;;8.40;99.90;;;;;;4941278;29;20460;-96
2022/04/27 00:27:36;;;;;;;6.67;5.97;;;8.50;99.90;;;;;;4932470;29;20587;-96
2022/04/27 00:30:16;;;;;;;10.43;6.50;;;8.60;99.90;;;;;;4933935;29;20444;-96
2022/04/27 00:32:45;;;;;;;7.40;6.70;;;8.40;99.90;;;;;;4939866;29;20450;-96
2022/04/27 00:35:10;;;;;;;8.97;7.63;;;8.50;99.90;;;;;;4964828;28;20439;-96
2022/04/27 00:37:39;;;;;;;9.10;7.83;;;8.80;99.90;;;;;;4934811;29;20445;-96
2022/04/27 00:40:05;;;;;;;7.77;6.90;;;8.60;99.90;;;;;;4939000;29;20216;-96
2022/04/27 00:42:34;;;;;;;8.53;7.30;;;8.60;99.90;;;;;;4931945;29;20483;-96
2022/04/27 00:45:02;;;;;;;7.60;6.80;;;8.70;99.90;;;;;;4927595;29;20806;-96
2022/04/27 00:47:31;;;;;;;8.63;7.73;;;8.70;99.90;;;;;;4931257;29;20440;-96
2022/04/27 01:00:24;;;;;;;8.97;8.00;;;8.80;99.90;;;;;;5317938;23;20515;-96
2022/04/27 01:03:00;;;;;;;10.07;8.33;;;8.80;99.90;;;;;;4936097;28;20552;-96
2022/04/27 01:05:35;;;;;;;10.20;9.07;;;8.80;99.90;;;;;;4956797;28;20500;-95
2022/04/27 01:08:04;;;;;;;10.80;9.57;;;8.60;99.90;;;;;;4965685;28;20520;-96
2022/04/27 01:10:52;;;;;;;11.30;9.50;;;8.50;99.90;;;;;;4940422;28;20445;-96
2022/04/27 01:13:18;;;;;;;10.27;9.07;;;8.40;99.90;;;;;;4935153;28;20485;-96
2022/04/27 01:15:44;;;;;;;11.40;9.70;;;8.50;99.90;;;;;;4952268;28;20489;-96
2022/04/27 01:18:16;;;;;;;10.67;9.27;;;8.50;99.90;;;;;;4976145;28;20209;-96
2022/04/27 01:21:06;;;;;;;10.40;9.10;;;8.50;99.90;;;;;;4990818;28;20466;-96
2022/04/27 01:23:34;;;;;;;9.70;8.60;;;9.00;99.90;;;;;;4970884;28;20438;-96
2022/04/27 01:26:05;;;;;;;11.63;9.17;;;9.00;99.90;;;;;;4952778;28;20451;-96
2022/04/27 01:28:35;;;;;;;10.73;8.90;;;8.60;99.90;;;;;;4961792;28;20966;-96
2022/04/27 01:31:11;;;;;;;11.10;9.33;;;8.50;99.90;;;;;;4952945;28;20503;-96
2022/04/27 01:33:37;;;;;;;13.60;9.30;;;8.50;99.90;;;;;;4953984;28;20977;-96
2022/04/27 01:36:13;;;;;;;11.60;8.90;;;8.50;99.90;;;;;;4959679;28;20760;-96
2022/04/27 01:38:40;;;;;;;11.17;8.50;;;8.50;99.90;;;;;;4960816;28;20507;-96
2022/04/27 01:41:09;;;;;;;9.73;8.73;;;8.50;99.90;;;;;;4963270;28;20508;-96
2022/04/27 01:43:36;;;;;;;9.77;8.37;;;8.50;99.90;;;;;;4965739;28;20456;-96
2022/04/27 01:46:12;;;;;;;9.20;7.57;;;8.50;99.90;;;;;;4967148;28;20446;-96
2022/04/27 01:48:45;;;;;;;11.27;8.87;;;8.50;99.90;;;;;;4979546;28;20457;-96
2022/04/27 01:51:14;;;;;;;9.00;8.10;;;8.40;99.90;;;;;;4968391;28;20468;-96
2022/04/27 01:56:31;;;;;;;8.73;7.70;;;8.40;99.90;;;;;;4989952;28;20423;-96
2022/04/27 02:41:08;;;;;;;11.50;9.80;;;8.50;99.90;;;;;;4962740;28;20745;-96
2022/04/27 02:44:14;;;;;;;10.77;9.67;;;8.50;99.90;;;;;;4982812;28;20498;-96
2022/04/27 02:47:14;;;;;;;9.80;8.50;;;8.50;99.90;;;;;;4970874;28;20455;-96
2022/04/27 03:10:29;;;;;;;10.10;9.00;;;8.60;99.90;;;;;;5224183;23;20484;-91
2022/04/27 03:13:15;;;;;;;10.00;9.00;;;8.50;99.90;;;;;;4993612;23;20515;-96
2022/04/27 03:16:11;;;;;;;10.27;9.00;;;8.60;99.90;;;;;;4969527;28;20193;-96
2022/04/27 03:18:46;;;;;;;12.10;9.50;;;8.60;99.90;;;;;;4976842;28;20461;-96
2022/04/27 03:21:16;;;;;;;9.33;8.27;;;8.50;99.90;;;;;;4976749;28;20447;-96
2022/04/27 04:13:05;;;;;;;13.27;10.33;;;8.50;99.90;;;;;;4963421;28;20464;-96
2022/04/27 04:15:32;;;;;;;14.33;11.80;;;8.50;99.90;;;;;;5043520;23;20496;-91
2022/04/27 04:18:34;;;;;;;13.77;10.90;;;8.60;99.90;;;;;;4984147;28;20460;-96
2022/04/27 04:21:00;;;;;;;14.47;11.40;;;8.80;99.90;;;;;;5106579;23;20551;-93
2022/04/27 04:23:26;;;;;;;12.23;10.63;;;9.00;99.90;;;;;;4937386;28;20453;-88
2022/04/27 04:28:56;;;;;;;12.30;9.70;;;8.70;99.90;;;;;;4962424;28;20217;-91
2022/04/27 04:31:22;;;;;;;14.07;11.23;;;8.70;99.90;;;;;;4941640;28;20500;-93
2022/04/27 04:33:50;;;;;;;15.23;11.70;;;8.60;99.90;;;;;;4958019;28;20460;-91
2022/04/27 04:36:16;;;;;;;11.90;10.60;;;8.50;99.90;;;;;;4957441;28;20191;-93
2022/04/27 04:38:41;;;;;;;13.53;11.17;;;8.60;99.90;;;;;;4940700;28;21637;-91
2022/04/27 04:41:07;;;;;;;13.90;11.73;;;8.50;99.90;;;;;;4943951;28;20631;-92
2022/04/27 04:43:32;;;;;;;12.83;11.23;;;8.50;99.90;;;;;;4944312;28;20186;-92
2022/04/27 04:46:25;;;;;;;14.67;11.23;;;8.60;99.90;;;;;;4948461;28;20291;-92
2022/04/27 04:48:51;;;;;;;15.67;11.90;;;8.60;99.90;;;;;;4949160;28;21501;-92
2022/04/27 04:51:19;;;;;;;17.57;12.30;;;8.60;99.90;;;;;;4968174;28;20449;-96
2022/04/27 04:53:45;;;;;;;15.67;12.37;;;8.50;99.90;;;;;;4968298;28;20205;-95
2022/04/27 04:56:11;;;;;;;13.73;11.73;;;8.50;99.90;;;;;;4954784;28;20499;-93
2022/04/27 04:58:36;;;;;;;13.67;11.53;;;8.60;99.90;;;;;;4951825;28;20215;-95
2022/04/27 05:01:03;;;;;;;17.47;12.47;;;8.60;99.90;;;;;;4939488;28;21862;-92
2022/04/27 05:03:30;;;;;;;15.03;11.77;;;8.70;99.90;;;;;;4944061;28;20191;-90
2022/04/27 05:05:55;;;;;;;15.90;12.70;;;8.80;99.90;;;;;;4948101;28;20461;-91
2022/04/27 05:08:21;;;;;;;16.27;12.73;;;8.80;99.90;;;;;;4944952;28;20449;-90
2022/04/27 05:10:47;;;;;;;16.00;13.53;;;8.80;99.90;;;;;;4940752;28;20191;-90
2022/04/27 05:13:12;;;;;;;14.70;11.90;;;8.70;99.90;;;;;;4950732;28;20229;-90
2022/04/27 05:15:39;;;;;;;14.10;11.83;;;8.80;99.90;;;;;;4940415;28;20229;-90
2022/04/27 05:18:04;;;;;;;14.33;11.53;;;8.90;99.90;;;;;;4947328;28;20206;-91
2022/04/27 05:20:30;;;;;;;18.20;13.20;;;8.90;99.90;;;;;;4932385;28;20469;-91
2022/04/27 05:22:56;;;;;;;17.30;12.80;;;8.90;99.90;;;;;;4949354;28;20191;-88
2022/04/27 05:25:21;;;;;;;16.13;13.03;;;8.80;99.90;;;;;;4928795;28;20679;-89
2022/04/27 05:27:57;;;;;;;16.57;12.13;;;8.90;99.90;;;;;;4955282;28;20265;-89
2022/04/27 05:33:07;;;;;;;15.53;11.73;;;9.30;99.90;;;;;;4954067;28;20573;-89
2022/04/27 05:35:41;;;;;;;17.03;14.77;;;9.30;99.90;;;;;;4940135;28;20446;-89
2022/04/27 05:38:06;;;;;;;20.10;14.40;;;9.20;99.90;;;;;;4941361;28;20408;-89
2022/04/27 05:40:33;;;;;;;17.53;14.93;;;8.90;99.90;;;;;;4939494;28;20469;-92
2022/04/27 05:42:59;;;;;;;20.37;15.10;;;9.00;99.90;;;;;;4942562;28;20192;-91
2022/04/27 05:45:34;;;;;;;18.67;14.40;;;9.00;99.90;;;;;;4943857;28;20449;-92
2022/04/27 05:48:12;;;;;;;18.00;14.57;;;9.00;99.90;;;;;;4942497;28;20192;-88
2022/04/27 05:50:37;;;;;;;21.10;16.70;;;9.10;99.90;;;;;;4934019;28;20456;-88
2022/04/27 05:53:23;;;;;;;20.90;16.57;;;9.10;99.90;;;;;;4935129;28;20476;-86
2022/04/27 05:55:50;;;;;;;19.83;15.37;;;9.10;99.90;;;;;;4950023;28;20201;-87
2022/04/27 05:58:15;;;;;;;21.17;16.57;;;9.10;99.90;;;;;;4926428;28;20503;-89
2022/04/27 06:00:41;;;;;;;22.20;16.83;;;8.90;99.90;;;;;;4953622;28;20218;-88
2022/04/27 06:03:07;;;;;;;22.03;16.47;;;9.10;99.90;;;;;;4936534;28;20732;-89
2022/04/27 06:05:41;;;;;;;22.03;17.00;;;9.30;99.90;;;;;;4947383;28;20221;-89
2022/04/27 06:08:10;;;;;;;21.77;15.13;;;9.30;99.90;;;;;;4952736;28;20205;-89
2022/04/27 06:10:36;;;;;;;23.00;17.97;;;9.40;99.90;;;;;;4949035;28;20533;-89
2022/04/27 06:13:13;;;;;;;23.20;18.27;;;9.20;99.90;;;;;;4928002;28;20206;-92
2022/04/27 06:15:39;;;;;;;23.63;17.37;;;9.10;99.90;;;;;;4959445;28;20449;-89
2022/04/27 06:18:05;;;;;;;23.90;17.43;;;9.10;99.90;;;;;;4941077;28;20217;-88
2022/04/27 06:20:30;;;;;;;22.03;16.60;;;9.30;99.90;;;;;;4939634;28;20214;-92
2022/04/27 06:22:57;;;;;;;24.13;17.10;;;9.40;99.90;;;;;;4944549;28;20803;-90
2022/04/27 06:25:30;;;;;;;22.97;17.07;;;9.80;99.90;;;;;;4942605;28;20230;-94
2022/04/27 06:27:55;;;;;;;23.00;16.73;;;9.90;99.90;;;;;;4924418;28;20450;-88
2022/04/27 06:30:21;;;;;;;23.27;17.13;;;9.90;99.90;;;;;;4946024;28;20495;-91
2022/04/27 06:32:47;;;;;;;24.97;17.70;;;9.80;99.90;;;;;;4948627;28;20182;-91
2022/04/27 06:35:15;;;;;;;23.67;17.07;;;10.10;99.90;;;;;;4941837;28;20437;-91
2022/04/27 06:37:41;;;;;;;23.80;16.90;;;9.70;99.90;;;;;;4960007;28;20248;-91
2022/04/27 06:40:10;;;;;;;22.20;16.80;;;10.40;99.90;;;;;;4944893;28;20473;-90
2022/04/27 06:42:36;;;;;;;22.27;16.40;;;10.00;99.90;;;;;;4938024;28;20257;-91
2022/04/27 06:45:05;;;;;;;18.17;14.73;;;10.20;99.90;;;;;;4942147;28;20548;-91
2022/04/27 06:47:31;;;;;;;19.67;14.67;;;10.50;99.90;;;;;;4945641;28;20498;-89
2022/04/27 06:49:56;;;;;;;16.30;13.40;;;10.70;99.90;;;;;;4941806;28;20956;-91
2022/04/27 06:52:24;;;;;;;20.00;15.57;;;10.80;99.90;;;;;;4941194;28;20278;-91
2022/04/27 06:54:59;;;;;;;19.23;13.67;;;10.70;99.90;;;;;;4947761;28;20181;-92
2022/04/27 07:05:09;;;;;;;16.17;13.20;;;11.10;99.90;;;;;;4946745;28;20496;-92
2022/04/27 07:07:35;;;;;;;17.20;13.10;;;11.20;99.90;;;;;;4953320;28;20458;-85
2022/04/27 07:10:01;;;;;;;15.40;13.17;;;11.20;99.90;;;;;;4930541;28;21341;-86
2022/04/27 07:12:26;;;;;;;15.37;13.23;;;11.10;99.90;;;;;;4931270;28;20186;-87
2022/04/27 07:14:59;;;;;;;15.90;13.53;;;11.20;99.90;;;;;;4933511;28;20216;-92
2022/04/27 07:17:52;;;;;;;15.37;11.97;;;11.30;99.90;;;;;;4948832;28;20313;-92
2022/04/27 07:20:18;;;;;;;14.03;12.10;;;11.50;99.90;;;;;;4946376;28;20474;-95
2022/04/27 07:22:44;;;;;;;17.60;13.30;;;11.50;99.90;;;;;;4952243;28;20452;-90
2022/04/27 07:25:09;;;;;;;15.57;12.97;;;11.50;99.90;;;;;;4953780;28;20449;-92
2022/04/27 07:27:35;;;;;;;13.43;11.87;;;11.50;99.90;;;;;;4960284;28;20220;-92
2022/04/27 07:30:01;;;;;;;12.67;10.50;;;11.60;99.90;;;;;;4953047;28;20281;-94
2022/04/27 07:32:26;;;;;;;13.57;12.10;;;12.30;99.90;;;;;;4954613;28;20434;-93
2022/04/27 07:34:52;;;;;;;13.20;11.60;;;12.30;99.90;;;;;;4955629;28;20221;-91
2022/04/27 07:37:29;;;;;;;16.10;13.57;;;12.40;99.90;;;;;;4956057;28;20198;-94
2022/04/27 07:39:58;;;;;;;14.97;13.37;;;12.40;99.90;;;;;;4954246;28;20260;-90
2022/04/27 07:42:23;;;;;;;16.30;13.90;;;12.20;99.90;;;;;;4955122;28;20467;-90
2022/04/27 07:44:49;;;;;;;13.70;11.23;;;12.20;99.90;;;;;;4953240;28;20461;-89
2022/04/27 07:47:15;;;;;;;13.07;11.50;;;12.10;99.90;;;;;;4954974;28;20637;-91
2022/04/27 07:49:41;;;;;;;13.20;11.40;;;12.80;99.90;;;;;;4955527;28;20198;-90
2022/04/27 07:52:07;;;;;;;12.20;10.90;;;13.40;99.90;;;;;;4956948;28;20433;-89
2022/04/27 07:54:41;;;;;;;12.93;11.63;;;13.70;99.90;;;;;;4938749;28;20272;-90
2022/04/27 07:57:07;;;;;;;13.87;12.47;;;13.70;99.90;;;;;;4931457;28;20453;-90
2022/04/27 07:59:32;;;;;;;15.77;13.07;;;13.10;99.90;;;;;;4939171;28;20489;-91
2022/04/27 08:01:58;;;;;;;12.23;10.37;;;12.70;99.90;;;;;;4930054;28;20194;-90
2022/04/27 08:04:23;;;;;;;12.07;10.90;;;12.60;99.90;;;;;;4932435;28;20392;-90
2022/04/27 08:06:50;;;;;;;12.70;11.40;;;12.30;99.90;;;;;;4935090;28;20843;-91
2022/04/27 08:09:16;;;;;;;12.67;11.20;;;12.20;99.90;;;;;;4925174;28;20555;-93
2022/04/27 08:11:42;;;;;;;12.30;11.00;;;12.50;99.90;;;;;;4936290;28;20505;-89
2022/04/27 08:14:08;;;;;;;15.10;13.20;;;12.70;99.90;;;;;;4923566;28;20771;-90
2022/04/27 08:16:33;;;;;;;13.20;11.33;;;12.60;99.90;;;;;;4924855;28;20216;-90
2022/04/27 08:18:59;;;;;;;14.33;12.40;;;12.40;99.90;;;;;;4930673;28;20210;-89
2022/04/27 08:21:27;;;;;;;14.87;12.07;;;12.40;99.90;;;;;;4936609;28;20221;-91
2022/04/27 08:23:53;;;;;;;12.37;11.07;;;12.40;99.90;;;;;;4956611;28;20616;-91
2022/04/27 08:26:19;;;;;;;12.17;10.87;;;12.40;99.90;;;;;;4938334;28;21970;-90
2022/04/27 08:28:45;;;;;;;12.43;10.80;;;12.60;99.90;;;;;;4942902;28;20802;-91
2022/04/27 08:31:13;;;;;;;10.53;9.43;;;12.60;99.90;;;;;;4931157;28;20567;-90
2022/04/27 08:33:39;;;;;;;11.57;10.37;;;12.80;99.90;;;;;;4915208;28;20478;-90
2022/04/27 08:36:05;;;;;;;11.53;10.37;;;12.90;99.90;;;;;;4949172;28;20453;-91
2022/04/27 08:38:33;;;;;;;12.17;10.90;;;13.00;99.90;;;;;;4928874;28;20264;-91
2022/04/27 08:40:59;;;;;;;10.90;9.77;;;13.20;99.90;;;;;;4928428;28;20457;-92
2022/04/27 08:43:26;;;;;;;11.00;10.00;;;13.20;99.90;;;;;;4943490;28;20454;-91
2022/04/27 08:45:52;;;;;;;10.73;9.63;;;13.20;99.90;;;;;;4943246;28;20590;-91
2022/04/27 08:48:18;;;;;;;10.80;9.30;;;12.80;99.90;;;;;;4955198;28;20440;-92
2022/04/27 08:50:50;;;;;;;11.10;9.67;;;12.60;99.90;;;;;;4945226;28;20202;-91
2022/04/27 08:53:38;;;;;;;13.23;9.60;;;12.80;99.90;;;;;;4959709;28;20465;-91
2022/04/27 08:56:04;;;;;;;11.20;9.77;;;13.30;99.90;;;;;;4940940;28;20537;-89
2022/04/27 08:58:36;;;;;;;8.80;7.60;;;13.60;99.90;;;;;;4942774;28;20612;-89
2022/04/27 09:01:17;;;;;;;9.80;8.77;;;13.70;99.90;;;;;;4944952;28;20444;-90
2022/04/27 09:04:18;;;;;;;9.40;8.13;;;13.50;99.90;;;;;;4953605;28;21109;-91
2022/04/27 09:06:47;;;;;;;10.50;9.40;;;13.50;99.90;;;;;;4951379;28;20481;-90
2022/04/27 09:09:34;;;;;;;9.07;8.17;;;13.50;99.90;;;;;;4922077;28;20544;-91
2022/04/27 09:12:02;;;;;;;10.20;9.10;;;13.70;99.90;;;;;;4950419;28;20434;-92
2022/04/27 09:14:44;;;;;;;7.93;7.20;;;13.70;99.90;;;;;;4922058;28;20457;-91
2022/04/27 09:20:54;;;;;;;8.23;7.43;;;14.20;99.90;;;;;;4963885;28;20595;-95
2022/04/27 09:24:07;;;;;;;7.87;7.07;;;14.20;99.90;;;;;;4967348;28;20826;-95
2022/04/27 09:26:36;;;;;;;9.37;8.00;;;14.10;99.90;;;;;;4969834;28;20448;-95
2022/04/27 09:29:05;;;;;;;8.77;7.77;;;14.40;99.90;;;;;;4957888;28;20429;-93
2022/04/27 09:31:40;;;;;;;7.27;6.60;;;14.10;99.90;;;;;;4950032;28;20457;-95
2022/04/27 09:34:31;;;;;;;7.40;6.50;;;13.50;99.90;;;;;;4971993;28;20493;-93
2022/04/27 09:37:22;;;;;;;7.27;6.57;;;14.50;99.90;;;;;;4953377;28;20461;-95
2022/04/27 18:28:13;;;;;;;5.80;5.30;;;13.50;94.30;;;;;;4920573;28;20526;-90
2022/04/27 18:30:42;;;;;;;5.17;4.60;;;13.40;95.10;;;;;;4925219;29;20458;-87
2022/04/27 18:33:13;;;;;;;4.90;4.50;;;13.30;95.20;;;;;;4969473;28;20439;-96
2022/04/27 18:35:40;;;;;;;5.33;4.20;;;13.20;96.50;;;;;;4919024;29;20513;-95
2022/04/27 18:38:06;;;;;;;5.13;4.73;;;13.20;98.40;;;;;;4920332;29;20447;-92
2022/04/27 18:40:52;;;;;;;4.90;4.60;;;13.00;99.00;;;;;;4928527;29;20365;-95
